createdAt,value
2023-04-25T00:01:27.742Z,100446.06
2023-04-25T00:03:56.109Z,100437.63
2023-04-25T00:06:27.409Z,100432.22
2023-04-25T00:08:56.688Z,100437.47
2023-04-25T00:11:24.976Z,100429.72
2023-04-25T00:13:55.392Z,100433.03
2023-04-25T00:16:24.909Z,100433.03
2023-04-25T00:18:54.777Z,100430.53
2023-04-25T00:21:23.332Z,100434.97
2023-04-25T00:23:51.583Z,100427.88
2023-04-25T00:26:19.613Z,100427.13
2023-04-25T00:28:47.620Z,100428.09
2023-04-25T00:31:16.977Z,100424.69
2023-04-25T00:33:44.958Z,100428.31
2023-04-25T00:36:12.950Z,100420.56
2023-04-25T00:38:40.986Z,100419.66
2023-04-25T00:41:09.857Z,100421.47
2023-04-25T00:43:39.093Z,100416.22
2023-04-25T00:46:07.431Z,100407.53
2023-04-25T00:48:36.778Z,100406.59
2023-04-25T00:51:04.889Z,100399.56
2023-04-25T00:53:34.157Z,100393.66
2023-04-25T00:56:02.135Z,100397.06
2023-04-25T00:58:30.142Z,100390.22
2023-04-25T01:00:59.485Z,100391.00
2023-04-25T01:03:29.850Z,100391.94
2023-04-25T01:05:59.317Z,100388.69
2023-04-25T01:08:27.392Z,100387.84
2023-04-25T01:10:55.317Z,100387.94
2023-04-25T01:13:23.351Z,100391.44
2023-04-25T01:15:51.192Z,100394.91
2023-04-25T01:18:20.129Z,100396.59
2023-04-25T01:20:49.105Z,100388.94
2023-04-25T01:23:18.640Z,100381.97
2023-04-25T01:25:47.744Z,100374.28
2023-04-25T01:28:16.237Z,100380.25
2023-04-25T01:30:44.897Z,100375.22
2023-04-25T01:33:15.919Z,100365.72
2023-04-25T01:35:43.900Z,100359.84
2023-04-25T01:38:12.286Z,100366.69
2023-04-25T01:40:42.766Z,100366.63
2023-04-25T01:43:13.117Z,100367.53
2023-04-25T01:45:42.262Z,100362.34
2023-04-25T01:48:10.613Z,100358.84
2023-04-25T01:50:39.552Z,100354.69
2023-04-25T01:53:08.229Z,100351.28
2023-04-25T01:55:36.155Z,100341.16
2023-04-25T01:58:10.108Z,100337.88
2023-04-25T02:00:39.841Z,100331.19
2023-04-25T02:03:10.097Z,100329.34
2023-04-25T02:05:41.266Z,100315.66
2023-04-25T02:08:10.106Z,100316.41
2023-04-25T02:10:38.156Z,100309.03
2023-04-25T02:13:07.592Z,100303.94
2023-04-25T02:15:35.524Z,100293.75
2023-04-25T02:18:03.636Z,100285.16
2023-04-25T02:20:32.490Z,100281.81
2023-04-25T02:23:00.391Z,100280.97
2023-04-25T02:25:28.559Z,100276.94
2023-04-25T02:27:56.499Z,100272.78
2023-04-25T02:30:25.973Z,100270.94
2023-04-25T02:32:53.895Z,100268.41
2023-04-25T02:35:22.089Z,100264.09
2023-04-25T02:37:49.964Z,100251.41
2023-04-25T02:40:17.825Z,100255.66
2023-04-25T02:42:46.696Z,100255.72
2023-04-25T02:45:14.623Z,100253.97
2023-04-25T02:47:43.944Z,100255.56
2023-04-25T02:50:12.448Z,100247.16
2023-04-25T02:52:40.354Z,100243.56
2023-04-25T02:55:08.893Z,100247.97
2023-04-25T02:57:36.829Z,100253.13
2023-04-25T03:00:06.804Z,100267.06
2023-04-25T03:02:34.949Z,100261.72
2023-04-25T03:05:04.586Z,100259.16
2023-04-25T03:07:32.484Z,100259.31
2023-04-25T03:10:00.805Z,100255.06
2023-04-25T03:12:28.678Z,100246.53
2023-04-25T03:14:56.611Z,100243.78
2023-04-25T03:17:24.624Z,100250.53
2023-04-25T03:19:52.507Z,100253.91
2023-04-25T03:22:21.854Z,100247.06
2023-04-25T03:24:49.785Z,100237.63
2023-04-25T03:27:17.792Z,100241.81
2023-04-25T03:29:45.736Z,100236.66
2023-04-25T03:32:13.900Z,100222.88
2023-04-25T03:34:42.284Z,100217.66
2023-04-25T03:37:10.260Z,100217.66
2023-04-25T03:39:39.861Z,100221.16
2023-04-25T03:42:07.909Z,100213.63
2023-04-25T03:44:35.790Z,100198.28
2023-04-25T03:47:03.732Z,100181.16
2023-04-25T03:49:32.279Z,100162.31
2023-04-25T03:52:00.275Z,100159.81
2023-04-25T03:54:30.952Z,100154.81
2023-04-25T03:57:00.407Z,100153.66
2023-04-25T03:59:28.292Z,100151.13
2023-04-25T04:01:56.341Z,100154.66
2023-04-25T04:04:24.346Z,100153.56
2023-04-25T04:06:53.539Z,100149.31
2023-04-25T04:09:21.554Z,100139.66
2023-04-25T04:11:49.532Z,100134.56
2023-04-25T04:14:18.867Z,100133.81
2023-04-25T04:16:47.001Z,100134.47
2023-04-25T04:19:14.827Z,100133.59
2023-04-25T04:21:42.704Z,100133.44
2023-04-25T04:24:11.372Z,100126.41
2023-04-25T04:26:39.790Z,100133.50
2023-04-25T04:29:08.086Z,100134.94
2023-04-25T04:31:37.705Z,100139.19
2023-04-25T04:34:05.712Z,100155.53
2023-04-25T04:36:34.064Z,100152.19
2023-04-25T04:39:02.219Z,100159.03
2023-04-25T04:41:30.174Z,100161.63
2023-04-25T04:43:58.062Z,100149.66
2023-04-25T04:46:26.368Z,100151.38
2023-04-25T04:48:57.406Z,100139.09
2023-04-25T04:51:25.401Z,100134.84
2023-04-25T04:53:53.413Z,100137.34
2023-04-25T04:56:24.383Z,100126.09
2023-04-25T04:58:52.282Z,100129.53
2023-04-25T05:01:20.337Z,100126.00
2023-04-25T05:03:48.643Z,100129.38
2023-04-25T05:06:18.393Z,100130.22
2023-04-25T05:08:46.292Z,100132.72
2023-04-25T05:11:14.240Z,100134.28
2023-04-25T05:13:42.192Z,100123.97
2023-04-25T05:16:10.318Z,100117.94
2023-04-25T05:18:38.303Z,100119.56
2023-04-25T05:21:06.538Z,100120.28
2023-04-25T05:23:36.003Z,100116.03
2023-04-25T05:26:04.047Z,100113.47
2023-04-25T05:28:31.923Z,100114.22
2023-04-25T05:30:59.902Z,100112.38
2023-04-25T05:33:27.859Z,100108.03
2023-04-25T05:35:55.826Z,100108.22
2023-04-25T05:40:36.596Z,100108.28
2023-04-25T05:43:04.565Z,100107.28
2023-04-25T05:45:32.477Z,100105.38
2023-04-25T05:48:00.483Z,100100.91
2023-04-25T05:50:29.050Z,100102.47
2023-04-25T05:52:56.861Z,100101.47
2023-04-25T05:55:24.664Z,100103.25
2023-04-25T05:57:54.034Z,100094.63
2023-04-25T06:00:23.651Z,100091.81
2023-04-25T06:02:51.959Z,100090.78
2023-04-25T06:05:22.829Z,100083.63
2023-04-25T06:07:51.041Z,100073.84
2023-04-25T06:10:19.454Z,100076.19
2023-04-25T06:12:47.326Z,100087.47
2023-04-25T06:15:28.255Z,100090.91
2023-04-25T06:17:57.317Z,100088.41
2023-04-25T06:20:25.795Z,100079.63
2023-04-25T06:22:54.083Z,100083.13
2023-04-25T06:25:22.172Z,100077.72
2023-04-25T06:27:50.178Z,100082.88
2023-04-25T06:30:23.621Z,100075.69
2023-04-25T06:32:54.079Z,100066.03
2023-04-25T06:35:22.252Z,100075.44
2023-04-25T06:37:50.240Z,100060.84
2023-04-25T06:40:18.502Z,100070.00
2023-04-25T06:42:46.606Z,100064.59
2023-04-25T06:45:14.543Z,100066.28
2023-04-25T06:47:44.003Z,100067.09
2023-04-25T06:50:12.490Z,100071.00
2023-04-25T06:52:40.401Z,100071.66
2023-04-25T06:55:09.023Z,100069.16
2023-04-25T06:57:36.996Z,100066.41
2023-04-25T07:00:09.569Z,100062.72
2023-04-25T07:02:37.831Z,100060.31
2023-04-25T07:05:07.687Z,100067.97
2023-04-25T07:07:35.678Z,100057.81
2023-04-25T07:10:03.900Z,100054.22
2023-04-25T07:12:31.915Z,100060.31
2023-04-25T07:15:06.901Z,100058.38
2023-04-25T07:17:35.843Z,100053.88
2023-04-25T07:20:04.759Z,100045.34
2023-04-25T07:22:34.084Z,100051.28
2023-04-25T07:25:02.021Z,100057.28
2023-04-25T07:27:29.845Z,100062.28
2023-04-25T07:29:57.823Z,100056.84
2023-04-25T07:32:25.944Z,100061.94
2023-04-25T07:34:54.026Z,100068.72
2023-04-25T07:37:21.933Z,100060.69
2023-04-25T07:39:51.363Z,100047.56
2023-04-25T07:42:19.340Z,100052.31
2023-04-25T07:44:47.365Z,100057.22
2023-04-25T07:47:15.309Z,100070.72
2023-04-25T07:49:43.181Z,100066.56
2023-04-25T07:52:11.120Z,100064.72
2023-04-25T07:54:38.982Z,100055.00
2023-04-25T07:57:08.288Z,100063.72
2023-04-25T07:59:36.280Z,100073.91
2023-04-25T08:02:04.596Z,100074.38
2023-04-25T08:04:32.645Z,100066.41
2023-04-25T08:07:00.849Z,100064.50
2023-04-25T08:09:28.795Z,100078.03
2023-04-25T08:11:56.672Z,100077.75
2023-04-25T08:14:25.960Z,100079.06
2023-04-25T08:16:53.860Z,100074.63
2023-04-25T08:19:21.922Z,100074.34
2023-04-25T08:21:49.859Z,100079.31
2023-04-25T08:24:18.129Z,100078.41
2023-04-25T08:26:46.009Z,100077.88
2023-04-25T08:29:13.841Z,100077.78
2023-04-25T08:31:43.256Z,100072.41
2023-04-25T08:34:14.271Z,100080.81
2023-04-25T08:36:42.273Z,100074.81
2023-04-25T08:39:10.200Z,100073.69
2023-04-25T08:41:39.297Z,100078.78
2023-04-25T08:44:09.700Z,100074.38
2023-04-25T08:46:40.580Z,100074.91
2023-04-25T08:49:11.249Z,100075.09
2023-04-25T08:51:47.587Z,100070.38
2023-04-25T08:54:33.900Z,100076.31
2023-04-25T08:57:04.998Z,100085.47
2023-04-25T08:59:35.619Z,100079.16
2023-04-25T09:02:05.666Z,100091.00
2023-04-25T09:04:35.075Z,100093.59
2023-04-25T09:07:02.996Z,100081.47
2023-04-25T09:09:31.818Z,100090.72
2023-04-25T09:12:00.589Z,100093.97
2023-04-25T09:14:29.041Z,100089.44
2023-04-25T09:17:05.862Z,100090.06
2023-04-25T09:19:40.786Z,100094.44
2023-04-25T09:22:10.114Z,100092.28
2023-04-25T09:24:40.022Z,100099.78
2023-04-25T09:27:09.240Z,100101.28
2023-04-25T09:29:38.744Z,100103.22
2023-04-25T09:32:25.066Z,100100.19
2023-04-25T09:34:56.955Z,100107.69
2023-04-25T09:37:26.322Z,100109.00
2023-04-25T09:39:56.445Z,100104.06
2023-04-25T09:42:25.986Z,100109.19
2023-04-25T09:44:55.479Z,100116.97
2023-04-25T09:47:25.390Z,100112.97
2023-04-25T09:49:57.579Z,100121.38
2023-04-25T09:52:28.546Z,100122.22
2023-04-25T09:54:56.411Z,100118.19
2023-04-25T09:57:25.557Z,100119.97
2023-04-25T09:59:54.487Z,100119.75
2023-04-25T10:02:24.530Z,100118.44
2023-04-25T10:04:56.233Z,100117.00
2023-04-25T10:07:27.201Z,100118.38
2023-04-25T10:10:00.795Z,100122.84
2023-04-25T10:12:28.999Z,100115.88
2023-04-25T10:14:57.256Z,100115.28
2023-04-25T10:17:25.937Z,100120.28
2023-04-25T10:19:56.297Z,100108.75
2023-04-25T10:22:31.572Z,100124.66
2023-04-25T10:24:59.863Z,100122.59
2023-04-25T10:27:29.773Z,100122.19
2023-04-25T10:30:05.341Z,100126.59
2023-04-25T10:32:34.539Z,100126.38
2023-04-25T10:35:14.859Z,100130.97
2023-04-25T10:37:57.369Z,100132.41
2023-04-25T10:40:25.345Z,100130.66
2023-04-25T10:42:54.209Z,100130.13
2023-04-25T10:45:22.476Z,100132.09
2023-04-25T10:47:50.480Z,100133.78
2023-04-25T10:50:21.262Z,100134.16
2023-04-25T10:52:49.110Z,100138.16
2023-04-25T10:55:17.034Z,100132.63
2023-04-25T10:57:47.324Z,100127.81
2023-04-25T11:00:16.351Z,100133.75
2023-04-25T11:02:46.747Z,100133.31
2023-04-25T11:05:36.347Z,100139.66
2023-04-25T11:08:13.522Z,100137.69
2023-04-25T11:10:42.385Z,100138.81
2023-04-25T11:13:10.287Z,100141.88
2023-04-25T11:15:39.294Z,100140.84
2023-04-25T11:18:09.678Z,100141.06
2023-04-25T11:20:38.947Z,100152.31
2023-04-25T11:23:06.883Z,100150.22
2023-04-25T11:25:35.569Z,100144.16
2023-04-25T11:28:06.415Z,100151.50
2023-04-25T11:30:34.351Z,100155.41
2023-04-25T11:33:04.378Z,100157.06
2023-04-25T11:35:34.672Z,100156.38
2023-04-25T11:38:03.799Z,100149.16
2023-04-25T11:40:32.696Z,100150.94
2023-04-25T11:43:02.721Z,100147.94
2023-04-25T11:45:31.722Z,100156.53
2023-04-25T11:48:02.018Z,100147.09
2023-04-25T11:50:30.478Z,100144.22
2023-04-25T11:52:59.138Z,100156.84
2023-04-25T11:55:28.467Z,100151.63
2023-04-25T11:57:56.554Z,100159.69
2023-04-25T12:00:25.778Z,100151.78
2023-04-25T12:02:55.057Z,100154.66
2023-04-25T12:05:32.609Z,100157.06
2023-04-25T12:08:15.858Z,100161.97
2023-04-25T12:10:48.267Z,100161.38
2023-04-25T12:13:23.405Z,100163.47
2023-04-25T12:15:51.806Z,100160.66
2023-04-25T12:18:22.217Z,100172.31
2023-04-25T12:20:49.890Z,100168.88
2023-04-25T12:23:18.005Z,100165.72
2023-04-25T12:25:48.208Z,100166.25
2023-04-25T12:28:20.579Z,100170.69
2023-04-25T12:30:58.650Z,100169.78
2023-04-25T12:33:28.369Z,100167.41
2023-04-25T12:35:57.009Z,100166.56
2023-04-25T12:38:30.355Z,100164.91
2023-04-25T12:41:00.388Z,100163.47
2023-04-25T12:43:28.520Z,100167.63
2023-04-25T12:45:57.981Z,100162.81
2023-04-25T12:48:26.003Z,100157.75
2023-04-25T12:50:56.850Z,100157.25
2023-04-25T12:53:25.740Z,100166.03
2023-04-25T12:58:28.025Z,100164.28
2023-04-25T13:00:56.024Z,100159.41
2023-04-25T13:03:24.316Z,100167.00
2023-04-25T13:05:53.641Z,100167.59
2023-04-25T13:08:21.803Z,100165.59
2023-04-25T13:10:49.819Z,100168.31
2023-04-25T13:13:18.202Z,100168.59
2023-04-25T13:15:47.686Z,100173.81
2023-04-25T13:18:15.616Z,100177.22
2023-04-25T13:20:43.840Z,100171.53
2023-04-25T13:23:11.752Z,100169.84
2023-04-25T13:25:39.698Z,100175.06
2023-04-25T13:28:07.710Z,100170.69
2023-04-25T13:30:36.010Z,100174.50
2023-04-25T13:33:07.566Z,100175.41
2023-04-25T13:35:37.333Z,100175.88
2023-04-25T13:38:05.645Z,100170.88
2023-04-25T13:40:34.073Z,100167.22
2023-04-25T13:43:01.972Z,100167.44
2023-04-25T13:45:31.543Z,100168.25
2023-04-25T13:48:01.603Z,100169.59
2023-04-25T13:50:31.263Z,100175.41
2023-04-25T13:52:59.245Z,100172.22
2023-04-25T13:55:28.803Z,100174.94
2023-04-25T13:57:56.785Z,100179.31
2023-04-25T14:00:24.738Z,100175.97
2023-04-25T14:02:52.738Z,100172.66
2023-04-25T14:05:20.809Z,100171.94
2023-04-25T14:07:50.044Z,100168.81
2023-04-25T14:10:17.909Z,100168.56
2023-04-25T14:12:46.059Z,100166.88
2023-04-25T14:15:13.954Z,100164.06
2023-04-25T14:17:42.177Z,100167.16
2023-04-25T14:20:11.990Z,100156.09
2023-04-25T14:22:44.002Z,100155.03
2023-04-25T14:25:13.211Z,100155.13
2023-04-25T14:27:41.129Z,100162.75
2023-04-25T14:30:10.885Z,100159.06
2023-04-25T14:32:41.396Z,100158.38
2023-04-25T14:35:10.190Z,100157.19
2023-04-25T14:37:38.518Z,100166.88
2023-04-25T14:40:08.158Z,100168.78
2023-04-25T14:42:37.452Z,100162.75
2023-04-25T14:45:07.694Z,100159.78
2023-04-25T14:47:35.647Z,100147.94
2023-04-25T14:50:03.724Z,100171.63
2023-04-25T14:52:31.924Z,100163.56
2023-04-25T14:55:01.170Z,100166.19
2023-04-25T14:57:29.231Z,100169.88
2023-04-25T14:59:58.538Z,100160.25
2023-04-25T15:02:27.214Z,100162.16
2023-04-25T15:04:55.787Z,100159.44
2023-04-25T15:07:23.993Z,100163.47
2023-04-25T15:09:52.043Z,100169.50
2023-04-25T15:12:20.036Z,100161.66
2023-04-25T15:14:47.976Z,100169.63
2023-04-25T15:17:17.439Z,100160.25
2023-04-25T15:19:45.290Z,100170.44
2023-04-25T15:22:13.638Z,100172.94
2023-04-25T15:24:41.577Z,100166.78
2023-04-25T15:27:09.742Z,100169.38
2023-04-25T15:29:37.873Z,100172.84
2023-04-25T15:32:06.053Z,100179.59
2023-04-25T15:34:36.443Z,100179.59
2023-04-25T15:37:04.502Z,100170.84
2023-04-25T15:39:33.478Z,100170.22
2023-04-25T15:42:03.503Z,100168.56
2023-04-25T15:44:31.517Z,100169.50
2023-04-25T15:46:59.339Z,100173.78
2023-04-25T15:49:28.512Z,100173.78
2023-04-25T15:51:57.820Z,100173.78
2023-04-25T15:54:25.762Z,100171.06
2023-04-25T15:56:53.670Z,100171.88
2023-04-25T15:59:21.500Z,100167.63
2023-04-25T16:01:49.474Z,100168.56
2023-04-25T16:04:17.705Z,100165.00
2023-04-25T16:06:45.772Z,100155.53
2023-04-25T16:09:15.141Z,100158.25
2023-04-25T16:11:43.110Z,100151.38
2023-04-25T16:14:10.997Z,100152.41
2023-04-25T16:16:38.913Z,100151.81
2023-04-25T16:19:06.926Z,100160.47
2023-04-25T16:21:34.814Z,100147.66
2023-04-25T16:24:02.778Z,100156.31
2023-04-25T16:26:32.310Z,100149.66
2023-04-25T16:29:00.412Z,100153.31
2023-04-25T16:31:28.389Z,100155.91
2023-04-25T16:33:56.731Z,100149.22
2023-04-25T16:36:24.946Z,100156.31
2023-04-25T16:38:53.481Z,100156.44
2023-04-25T16:41:22.208Z,100158.34
2023-04-25T16:43:51.581Z,100158.56
2023-04-25T16:46:20.295Z,100158.78
2023-04-25T16:48:49.194Z,100157.22
2023-04-25T16:51:17.449Z,100151.19
2023-04-25T16:53:46.640Z,100151.28
2023-04-25T16:56:14.499Z,100154.00
2023-04-25T16:58:42.474Z,100151.41
2023-04-25T17:01:16.027Z,100148.91
2023-04-25T17:03:44.904Z,100157.75
2023-04-25T17:06:13.208Z,100154.34
2023-04-25T17:08:41.628Z,100146.72
2023-04-25T17:11:10.389Z,100136.41
2023-04-25T17:13:38.295Z,100144.22
2023-04-25T17:16:07.475Z,100138.41
2023-04-25T17:18:37.204Z,100146.44
2023-04-25T17:21:06.095Z,100149.16
2023-04-25T17:23:35.119Z,100146.53
2023-04-25T17:26:03.379Z,100147.59
2023-04-25T17:28:31.660Z,100150.22
2023-04-25T17:30:59.895Z,100157.19
2023-04-25T17:33:28.718Z,100153.03
2023-04-25T17:35:58.018Z,100147.09
2023-04-25T17:38:25.994Z,100144.59
2023-04-25T17:40:53.918Z,100147.31
2023-04-25T17:43:21.961Z,100157.03
2023-04-25T17:45:49.957Z,100151.91
2023-04-25T17:48:18.183Z,100154.84
2023-04-25T17:50:46.268Z,100160.06
2023-04-25T17:53:15.670Z,100162.88
2023-04-25T17:55:43.924Z,100163.09
2023-04-25T17:58:12.183Z,100159.63
2023-04-25T18:00:40.627Z,100154.66
2023-04-25T18:03:08.709Z,100157.47
2023-04-25T18:05:36.789Z,100161.81
2023-04-25T18:08:05.997Z,100156.72
2023-04-25T18:10:35.613Z,100157.69
2023-04-25T18:13:03.707Z,100159.75
2023-04-25T18:15:31.740Z,100156.34
2023-04-25T18:17:59.879Z,100154.69
2023-04-25T18:20:28.616Z,100161.66
2023-04-25T18:22:57.525Z,100153.84
2023-04-25T18:25:25.353Z,100155.00
2023-04-25T18:27:54.662Z,100158.84
2023-04-25T18:30:22.869Z,100155.75
2023-04-25T18:32:50.858Z,100159.16
2023-04-25T18:35:18.956Z,100161.06
2023-04-25T18:37:47.015Z,100162.81
2023-04-25T18:40:16.283Z,100169.06
2023-04-25T18:42:44.225Z,100173.63
2023-04-25T18:45:13.716Z,100173.00
2023-04-25T18:47:41.631Z,100173.22
2023-04-25T18:50:10.298Z,100169.06
2023-04-25T18:52:38.437Z,100165.50
2023-04-25T18:55:07.292Z,100168.84
2023-04-25T18:57:35.267Z,100162.00
2023-04-25T19:00:06.973Z,100174.25
2023-04-25T19:02:38.024Z,100177.72
2023-04-25T19:05:07.022Z,100176.13
2023-04-25T19:07:34.976Z,100171.13
2023-04-25T19:10:04.673Z,100175.41
2023-04-25T19:12:33.592Z,100179.69
2023-04-25T19:15:01.753Z,100181.53
2023-04-25T19:17:30.464Z,100181.03
2023-04-25T19:20:00.021Z,100180.50
2023-04-25T19:22:28.157Z,100187.59
2023-04-25T19:25:09.277Z,100190.50
2023-04-25T19:27:38.805Z,100181.53
2023-04-25T19:30:10.977Z,100187.88
2023-04-25T19:32:40.110Z,100190.78
2023-04-25T19:35:11.950Z,100191.19
2023-04-25T19:37:45.873Z,100187.13
2023-04-25T19:40:15.327Z,100194.47
2023-04-25T19:42:43.479Z,100195.63
2023-04-25T19:45:12.534Z,100188.13
2023-04-25T19:47:40.460Z,100195.47
2023-04-25T19:50:11.183Z,100202.09
2023-04-25T19:52:40.190Z,100190.72
2023-04-25T19:55:10.233Z,100198.63
2023-04-25T19:57:38.720Z,100197.22
2023-04-25T20:00:10.789Z,100217.09
2023-04-25T20:02:39.174Z,100211.53
2023-04-25T20:05:10.000Z,100209.09
2023-04-25T20:07:38.002Z,100205.28
2023-04-25T20:10:07.918Z,100202.88
2023-04-25T20:12:37.681Z,100205.00
2023-04-25T20:15:06.802Z,100199.91
2023-04-25T20:17:34.659Z,100207.03
2023-04-25T20:20:04.159Z,100199.25
2023-04-25T20:22:37.074Z,100204.72
2023-04-25T20:25:06.618Z,100206.56
2023-04-25T20:27:34.559Z,100204.28
2023-04-25T20:30:07.154Z,100200.09
2023-04-25T20:32:35.901Z,100209.00
2023-04-25T20:35:07.327Z,100209.84
2023-04-25T20:37:37.727Z,100204.66
2023-04-25T20:40:07.879Z,100203.91
2023-04-25T20:42:36.302Z,100215.22
2023-04-25T20:45:07.613Z,100211.88
2023-04-25T20:47:36.032Z,100213.97
2023-04-25T20:50:06.038Z,100208.97
2023-04-25T20:52:34.424Z,100221.97
2023-04-25T20:55:03.839Z,100215.94
2023-04-25T20:57:32.046Z,100223.06
2023-04-25T20:59:59.891Z,100217.88
2023-04-25T21:02:28.122Z,100217.13
2023-04-25T21:04:56.097Z,100219.81
2023-04-25T21:07:24.027Z,100217.50
2023-04-25T21:09:52.329Z,100219.56
2023-04-25T21:12:21.675Z,100215.34
2023-04-25T21:14:49.541Z,100210.56
2023-04-25T21:17:17.503Z,100212.41
2023-04-25T21:19:45.431Z,100211.63
2023-04-25T21:22:13.469Z,100208.41
2023-04-25T21:24:41.357Z,100204.13
2023-04-25T21:27:09.267Z,100213.28
2023-04-25T21:29:38.486Z,100206.25
2023-04-25T21:32:06.621Z,100203.94
2023-04-25T21:34:34.454Z,100200.69
2023-04-25T21:37:02.365Z,100206.81
2023-04-25T21:39:30.282Z,100210.28
2023-04-25T21:41:58.312Z,100207.78
2023-04-25T21:44:28.639Z,100208.91
2023-04-25T21:46:57.898Z,100209.66
2023-04-25T21:49:29.386Z,100202.59
2023-04-25T21:51:57.775Z,100206.31
2023-04-25T21:54:25.707Z,100204.75
2023-04-25T21:56:53.561Z,100206.50
2023-04-25T21:59:24.241Z,100209.16
2023-04-25T22:01:52.368Z,100206.09
2023-04-25T22:04:24.097Z,100209.53
2023-04-25T22:06:52.823Z,100205.19
2023-04-25T22:09:23.682Z,100207.41
2023-04-25T22:11:53.248Z,100204.91
2023-04-25T22:14:22.294Z,100204.16
2023-04-25T22:16:50.426Z,100200.16
2023-04-25T22:19:18.496Z,100204.41
2023-04-25T22:21:48.585Z,100209.59
2023-04-25T22:24:16.831Z,100207.09
2023-04-25T22:26:44.762Z,100203.03
2023-04-25T22:29:12.662Z,100204.78
2023-04-25T22:31:40.878Z,100196.25
2023-04-25T22:34:08.788Z,100197.09
2023-04-25T22:36:36.661Z,100197.09
2023-04-25T22:39:06.276Z,100192.66
2023-04-25T22:41:34.276Z,100192.16
2023-04-25T22:44:02.269Z,100196.97
2023-04-25T22:46:30.369Z,100201.22
2023-04-25T22:48:58.342Z,100197.88
2023-04-25T22:52:08.592Z,100193.63
2023-04-25T22:54:37.715Z,100194.81
2023-04-25T22:57:07.837Z,100192.84
2023-04-25T22:59:38.104Z,100178.41
2023-04-25T23:02:05.785Z,100180.16
2023-04-25T23:04:34.564Z,100179.50
2023-04-25T23:07:02.510Z,100182.03
2023-04-25T23:09:30.556Z,100170.81
2023-04-25T23:11:59.908Z,100170.72
2023-04-25T23:14:27.755Z,100170.91
2023-04-25T23:16:55.716Z,100173.41
2023-04-25T23:19:23.879Z,100179.44
2023-04-25T23:21:51.865Z,100175.91
2023-04-25T23:24:19.756Z,100177.56
2023-04-25T23:26:47.643Z,100181.75
2023-04-25T23:29:17.012Z,100176.41
2023-04-25T23:31:44.933Z,100175.66
2023-04-25T23:34:12.909Z,100171.47
2023-04-25T23:36:40.827Z,100175.66
2023-04-25T23:39:10.389Z,100177.31
2023-04-25T23:41:38.261Z,100172.97
2023-04-25T23:44:14.320Z,100174.44
2023-04-25T23:46:43.692Z,100171.94
2023-04-25T23:49:11.604Z,100170.19
2023-04-25T23:51:39.516Z,100170.13
2023-04-25T23:54:07.437Z,100168.47
2023-04-25T23:56:35.290Z,100169.34
2023-04-25T23:59:03.851Z,100161.50
